createdAt,value
2022-10-11T00:03:09.421Z,15.27
2022-10-11T00:08:15.907Z,15.26
2022-10-11T00:13:22.306Z,15.25
2022-10-11T00:18:28.547Z,15.25
2022-10-11T00:23:35.677Z,15.24
2022-10-11T00:28:42.459Z,15.25
2022-10-11T00:33:48.878Z,15.26
2022-10-11T00:38:55.177Z,15.24
2022-10-11T00:44:15.130Z,15.25
2022-10-11T00:49:24.739Z,15.26
2022-10-11T00:54:33.157Z,15.26
2022-10-11T00:59:40.807Z,15.24
2022-10-11T01:04:47.160Z,15.26
2022-10-11T01:09:53.328Z,15.22
2022-10-11T01:15:09.226Z,15.22
2022-10-11T01:20:28.418Z,15.23
2022-10-11T01:25:38.031Z,15.24
2022-10-11T01:30:44.904Z,15.23
2022-10-11T01:35:55.686Z,15.21
2022-10-11T01:41:04.700Z,15.22
2022-10-11T01:46:11.587Z,15.22
2022-10-11T01:51:18.480Z,15.23
2022-10-11T01:56:31.312Z,15.20
2022-10-11T02:01:45.018Z,15.22
2022-10-11T02:06:57.556Z,15.21
2022-10-11T02:12:06.866Z,15.22
2022-10-11T02:17:15.518Z,15.21
2022-10-11T02:22:23.106Z,15.22
2022-10-11T02:27:30.805Z,15.20
2022-10-11T02:32:37.818Z,15.20
2022-10-11T02:37:50.638Z,15.21
2022-10-11T02:43:01.660Z,15.20
2022-10-11T02:48:08.726Z,15.21
2022-10-11T02:53:14.910Z,15.18
2022-10-11T02:58:21.170Z,15.21
2022-10-11T03:03:27.500Z,15.18
2022-10-11T03:08:33.698Z,15.18
2022-10-11T03:13:39.824Z,15.16
2022-10-11T03:18:45.920Z,15.18
2022-10-11T03:23:52.149Z,15.20
2022-10-11T03:28:58.536Z,15.18
2022-10-11T03:34:04.876Z,15.17
2022-10-11T03:39:11.252Z,15.18
2022-10-11T03:44:17.506Z,15.15
2022-10-11T03:49:23.897Z,15.15
2022-10-11T03:54:30.200Z,15.17
2022-10-11T03:59:36.466Z,15.15
2022-10-11T04:04:42.498Z,15.15
2022-10-11T04:09:48.745Z,15.15
2022-10-11T04:14:54.974Z,15.18
2022-10-11T04:20:01.258Z,15.17
2022-10-11T04:25:08.777Z,15.19
2022-10-11T04:30:15.728Z,15.18
2022-10-11T04:35:21.947Z,15.18
2022-10-11T04:40:28.145Z,15.18
2022-10-11T04:45:34.402Z,15.14
2022-10-11T04:50:40.664Z,15.16
2022-10-11T04:55:47.036Z,15.17
2022-10-11T05:00:53.227Z,15.17
2022-10-11T05:06:04.516Z,15.16
2022-10-11T05:11:15.648Z,15.14
2022-10-11T05:16:22.170Z,15.16
2022-10-11T05:21:28.875Z,15.15
2022-10-11T05:26:35.847Z,15.13
2022-10-11T05:31:42.127Z,15.15
2022-10-11T05:36:48.327Z,15.12
2022-10-11T05:41:54.496Z,15.14
2022-10-11T05:47:00.724Z,15.13
2022-10-11T05:52:09.445Z,15.13
2022-10-11T05:57:16.176Z,15.14
2022-10-11T06:02:22.421Z,15.13
2022-10-11T06:07:28.860Z,15.13
2022-10-11T06:12:35.047Z,15.12
2022-10-11T06:17:41.326Z,15.12
2022-10-11T06:22:47.511Z,15.12
2022-10-11T06:27:53.677Z,15.14
2022-10-11T06:33:04.476Z,15.15
2022-10-11T06:38:11.200Z,15.14
2022-10-11T06:43:17.307Z,15.16
2022-10-11T06:48:23.406Z,15.15
2022-10-11T06:53:29.920Z,15.16
2022-10-11T06:58:36.553Z,15.15
2022-10-11T07:03:42.988Z,15.16
2022-10-11T07:08:49.721Z,15.17
2022-10-11T07:13:56.977Z,15.14
2022-10-11T07:19:03.747Z,15.17
2022-10-11T07:24:10.336Z,15.19
2022-10-11T07:29:16.488Z,15.19
2022-10-11T07:34:23.216Z,15.20
2022-10-11T07:39:31.260Z,15.22
2022-10-11T07:44:37.910Z,15.22
2022-10-11T07:49:44.181Z,15.20
2022-10-11T07:54:51.960Z,15.20
2022-10-11T07:59:58.297Z,15.19
2022-10-11T08:05:04.797Z,15.21
2022-10-11T08:10:12.276Z,15.23
2022-10-11T08:15:19.026Z,15.24
2022-10-11T08:20:25.246Z,15.22
2022-10-11T08:25:31.517Z,15.22
2022-10-11T08:30:37.777Z,15.22
2022-10-11T08:35:43.928Z,15.20
2022-10-11T08:40:51.036Z,15.20
2022-10-11T08:45:59.007Z,15.22
2022-10-11T08:51:08.211Z,15.20
2022-10-11T08:56:15.366Z,15.21
2022-10-11T09:01:23.746Z,15.18
2022-10-11T09:06:38.386Z,15.22
2022-10-11T09:11:50.206Z,15.21
2022-10-11T09:17:03.076Z,15.19
2022-10-11T09:22:13.475Z,15.19
2022-10-11T09:27:37.831Z,15.19
2022-10-11T09:32:49.556Z,15.23
2022-10-11T09:37:59.560Z,15.18
2022-10-11T09:43:06.208Z,15.19
2022-10-11T09:48:15.746Z,15.20
2022-10-11T09:53:22.586Z,15.17
2022-10-11T09:58:30.046Z,15.20
2022-10-11T10:03:36.892Z,15.20
2022-10-11T10:08:45.926Z,15.18
2022-10-11T10:13:52.996Z,15.20
2022-10-11T10:19:00.737Z,15.19
2022-10-11T10:24:09.861Z,15.19
2022-10-11T10:29:20.486Z,15.19
2022-10-11T10:34:29.946Z,15.18
2022-10-11T10:39:39.320Z,15.21
2022-10-11T10:44:46.637Z,15.20
2022-10-11T10:49:56.636Z,15.19
2022-10-11T10:55:06.961Z,15.22
2022-10-11T11:00:16.406Z,15.18
2022-10-11T11:05:35.410Z,15.21
2022-10-11T11:10:45.516Z,15.21
2022-10-11T11:15:55.725Z,15.22
2022-10-11T11:21:12.407Z,15.22
2022-10-11T11:26:24.137Z,15.23
2022-10-11T11:31:38.617Z,15.23
2022-10-11T11:36:47.219Z,15.20
2022-10-11T11:41:55.328Z,15.22
2022-10-11T11:47:03.957Z,15.23
2022-10-11T11:52:14.656Z,15.21
2022-10-11T11:57:27.396Z,15.22
2022-10-11T12:02:40.854Z,15.24
2022-10-11T12:07:51.406Z,15.24
2022-10-11T12:13:11.129Z,15.23
2022-10-11T12:18:18.636Z,15.24
2022-10-11T12:23:50.199Z,15.25
2022-10-11T12:29:12.757Z,15.23
2022-10-11T12:34:33.771Z,15.24
2022-10-11T12:39:44.226Z,15.26
2022-10-11T12:45:03.748Z,15.26
2022-10-11T12:50:17.418Z,15.25
2022-10-11T12:55:32.037Z,15.25
2022-10-11T13:00:46.710Z,15.23
2022-10-11T13:05:59.107Z,15.24
2022-10-11T13:11:10.457Z,15.23
2022-10-11T13:16:18.191Z,15.24
2022-10-11T13:21:28.906Z,15.24
2022-10-11T13:26:35.235Z,15.24
2022-10-11T13:31:44.028Z,15.24
2022-10-11T13:36:50.490Z,15.23
2022-10-11T13:41:57.366Z,15.25
2022-10-11T13:47:04.309Z,15.23
2022-10-11T13:52:21.597Z,15.22
2022-10-11T13:57:35.124Z,15.23
2022-10-11T14:02:41.697Z,15.22
2022-10-11T14:07:49.207Z,15.24
2022-10-11T14:13:03.489Z,15.23
2022-10-11T14:18:33.460Z,15.22
2022-10-11T14:23:39.827Z,15.23
2022-10-11T14:28:46.578Z,15.21
2022-10-11T14:33:52.778Z,15.23
2022-10-11T14:38:59.305Z,15.21
2022-10-11T14:44:05.607Z,15.22
2022-10-11T14:49:15.886Z,15.23
2022-10-11T14:54:23.950Z,15.22
2022-10-11T14:59:34.441Z,15.22
2022-10-11T15:04:40.768Z,15.21
2022-10-11T15:09:47.160Z,15.20
2022-10-11T15:14:53.375Z,15.19
2022-10-11T15:19:59.549Z,15.21
2022-10-11T15:25:06.240Z,15.22
2022-10-11T15:30:17.557Z,15.19
2022-10-11T15:35:24.617Z,15.20
2022-10-11T15:40:34.087Z,15.19
2022-10-11T15:45:40.697Z,15.20
2022-10-11T15:50:47.668Z,15.17
2022-10-11T15:55:54.754Z,15.16
2022-10-11T16:01:02.508Z,15.15
2022-10-11T16:06:09.707Z,15.18
2022-10-11T16:11:16.107Z,15.17
2022-10-11T16:16:22.335Z,15.17
2022-10-11T16:21:28.554Z,15.15
2022-10-11T16:26:34.598Z,15.17
2022-10-11T16:31:41.131Z,15.14
2022-10-11T16:36:47.510Z,15.13
2022-10-11T16:41:53.721Z,15.15
2022-10-11T16:47:00.457Z,15.10
2022-10-11T16:52:07.026Z,15.11
2022-10-11T16:57:13.397Z,15.11
2022-10-11T17:02:20.630Z,15.12
2022-10-11T17:07:26.790Z,15.13
2022-10-11T17:12:35.741Z,15.13
2022-10-11T17:17:42.006Z,15.13
2022-10-11T17:22:48.159Z,15.10
2022-10-11T17:27:56.278Z,15.10
2022-10-11T17:33:02.557Z,15.11
2022-10-11T17:38:08.881Z,15.11
2022-10-11T17:43:16.057Z,15.11
2022-10-11T17:48:22.621Z,15.07
2022-10-11T17:53:28.907Z,15.07
2022-10-11T17:58:35.077Z,15.10
2022-10-11T18:03:41.796Z,15.09
2022-10-11T18:08:48.156Z,15.09
2022-10-11T18:13:55.127Z,15.08
2022-10-11T18:19:03.520Z,15.06
2022-10-11T18:24:11.212Z,15.08
2022-10-11T18:29:17.430Z,15.07
2022-10-11T18:34:24.476Z,15.08
2022-10-11T18:39:30.738Z,15.06
2022-10-11T18:44:37.088Z,15.04
2022-10-11T18:49:43.296Z,15.05
2022-10-11T18:54:49.857Z,15.05
2022-10-11T18:59:56.240Z,15.03
2022-10-11T19:05:02.544Z,15.02
2022-10-11T19:10:09.490Z,15.03
2022-10-11T19:15:16.887Z,15.02
2022-10-11T19:20:23.117Z,15.03
2022-10-11T19:25:29.227Z,15.02
2022-10-11T19:30:35.633Z,15.04
2022-10-11T19:35:42.850Z,15.02
2022-10-11T19:40:50.235Z,15.01
2022-10-11T19:46:02.256Z,15.03
2022-10-11T19:51:09.686Z,15.00
2022-10-11T19:56:16.785Z,15.00
2022-10-11T20:01:23.469Z,15.00
2022-10-11T20:06:33.456Z,15.01
2022-10-11T20:11:42.187Z,15.01
2022-10-11T20:16:50.798Z,15.01
2022-10-11T20:21:57.026Z,14.98
2022-10-11T20:27:03.476Z,14.99
2022-10-11T20:32:09.620Z,14.98
2022-10-11T20:37:15.696Z,15.00
2022-10-11T20:42:25.296Z,14.98
2022-10-11T20:47:34.089Z,15.00
2022-10-11T20:52:40.327Z,14.97
2022-10-11T20:57:46.514Z,14.95
2022-10-11T21:02:52.868Z,14.97
2022-10-11T21:07:59.130Z,14.96
2022-10-11T21:13:05.730Z,14.96
2022-10-11T21:18:12.797Z,14.95
2022-10-11T21:23:20.207Z,14.97
2022-10-11T21:28:26.594Z,14.94
2022-10-11T21:33:32.792Z,14.96
2022-10-11T21:38:39.010Z,14.94
2022-10-11T21:43:45.505Z,14.93
2022-10-11T21:48:51.988Z,14.92
2022-10-11T21:54:00.382Z,14.93
2022-10-11T21:59:11.032Z,14.93
2022-10-11T22:04:18.916Z,14.93
2022-10-11T22:09:25.437Z,14.91
2022-10-11T22:14:31.957Z,14.91
2022-10-11T22:19:38.186Z,14.90
2022-10-11T22:24:44.603Z,14.90
2022-10-11T22:29:50.837Z,14.90
2022-10-11T22:34:56.994Z,14.90
2022-10-11T22:40:03.676Z,14.90
2022-10-11T22:45:10.997Z,14.92
2022-10-11T22:50:17.107Z,14.90
2022-10-11T22:55:23.331Z,14.88
2022-10-11T23:00:29.526Z,14.88
2022-10-11T23:05:35.808Z,14.88
2022-10-11T23:10:42.136Z,14.88
2022-10-11T23:15:48.377Z,14.87
2022-10-11T23:20:54.696Z,14.86
2022-10-11T23:26:04.720Z,14.88
2022-10-11T23:31:12.246Z,14.85
2022-10-11T23:36:18.720Z,14.84
2022-10-11T23:41:25.794Z,14.85
2022-10-11T23:46:31.967Z,14.84
2022-10-11T23:51:38.146Z,14.83
2022-10-11T23:56:44.341Z,14.82
